sensor_id;sensor_type;location;lat;lon;timestamp;P1;durP1;ratioP1;P2;durP2;ratioP2
5819;SDS011;2936;47.348;9.640;2023-03-16T00:00:04;5.53;;;4.20;;
5819;SDS011;2936;47.348;9.640;2023-03-16T00:02:33;4.13;;;3.60;;
5819;SDS011;2936;47.348;9.640;2023-03-16T00:05:01;4.32;;;3.92;;
5819;SDS011;2936;47.348;9.640;2023-03-16T00:07:28;3.28;;;3.13;;
5819;SDS011;2936;47.348;9.640;2023-03-16T00:09:57;3.70;;;3.33;;
5819;SDS011;2936;47.348;9.640;2023-03-16T00:12:24;4.93;;;3.70;;
5819;SDS011;2936;47.348;9.640;2023-03-16T00:14:51;4.03;;;3.72;;
5819;SDS011;2936;47.348;9.640;2023-03-16T00:17:19;3.85;;;3.50;;
5819;SDS011;2936;47.348;9.640;2023-03-16T00:19:47;6.05;;;3.58;;
5819;SDS011;2936;47.348;9.640;2023-03-16T00:22:18;6.55;;;3.40;;
5819;SDS011;2936;47.348;9.640;2023-03-16T00:24:46;3.80;;;3.50;;
5819;SDS011;2936;47.348;9.640;2023-03-16T00:27:15;4.90;;;3.67;;
5819;SDS011;2936;47.348;9.640;2023-03-16T00:29:42;3.72;;;3.42;;
5819;SDS011;2936;47.348;9.640;2023-03-16T00:32:12;3.40;;;3.20;;
5819;SDS011;2936;47.348;9.640;2023-03-16T00:34:40;3.55;;;3.28;;
5819;SDS011;2936;47.348;9.640;2023-03-16T00:37:08;3.33;;;3.10;;
5819;SDS011;2936;47.348;9.640;2023-03-16T00:39:38;3.42;;;3.13;;
5819;SDS011;2936;47.348;9.640;2023-03-16T00:42:06;3.80;;;3.40;;
5819;SDS011;2936;47.348;9.640;2023-03-16T00:44:34;3.80;;;3.50;;
5819;SDS011;2936;47.348;9.640;2023-03-16T00:47:02;3.63;;;3.35;;
5819;SDS011;2936;47.348;9.640;2023-03-16T00:49:29;4.82;;;3.65;;
5819;SDS011;2936;47.348;9.640;2023-03-16T00:51:59;3.63;;;3.33;;
5819;SDS011;2936;47.348;9.640;2023-03-16T00:54:26;6.93;;;3.58;;
5819;SDS011;2936;47.348;9.640;2023-03-16T00:56:54;3.90;;;3.42;;
5819;SDS011;2936;47.348;9.640;2023-03-16T00:59:21;4.25;;;3.13;;
5819;SDS011;2936;47.348;9.640;2023-03-16T01:01:51;5.55;;;3.97;;
5819;SDS011;2936;47.348;9.640;2023-03-16T01:04:19;3.05;;;2.85;;
5819;SDS011;2936;47.348;9.640;2023-03-16T01:06:46;4.10;;;3.80;;
5819;SDS011;2936;47.348;9.640;2023-03-16T01:09:14;4.05;;;3.35;;
5819;SDS011;2936;47.348;9.640;2023-03-16T01:11:42;2.92;;;2.72;;
5819;SDS011;2936;47.348;9.640;2023-03-16T01:14:09;6.45;;;3.50;;
5819;SDS011;2936;47.348;9.640;2023-03-16T01:16:36;4.22;;;3.67;;
5819;SDS011;2936;47.348;9.640;2023-03-16T01:19:05;4.63;;;3.40;;
5819;SDS011;2936;47.348;9.640;2023-03-16T01:21:32;5.22;;;3.40;;
5819;SDS011;2936;47.348;9.640;2023-03-16T01:24:02;3.63;;;3.30;;
5819;SDS011;2936;47.348;9.640;2023-03-16T01:26:29;3.95;;;3.58;;
5819;SDS011;2936;47.348;9.640;2023-03-16T01:28:57;4.03;;;3.30;;
5819;SDS011;2936;47.348;9.640;2023-03-16T01:31:26;3.20;;;3.10;;
5819;SDS011;2936;47.348;9.640;2023-03-16T01:33:56;3.80;;;3.45;;
5819;SDS011;2936;47.348;9.640;2023-03-16T01:36:24;4.07;;;3.47;;
5819;SDS011;2936;47.348;9.640;2023-03-16T01:38:52;4.60;;;3.17;;
5819;SDS011;2936;47.348;9.640;2023-03-16T01:41:19;3.50;;;3.30;;
5819;SDS011;2936;47.348;9.640;2023-03-16T01:43:47;3.72;;;3.42;;
5819;SDS011;2936;47.348;9.640;2023-03-16T01:46:17;3.22;;;2.92;;
5819;SDS011;2936;47.348;9.640;2023-03-16T01:51:30;4.15;;;3.20;;
5819;SDS011;2936;47.348;9.640;2023-03-16T01:53:58;3.88;;;3.55;;
5819;SDS011;2936;47.348;9.640;2023-03-16T01:56:28;3.22;;;2.97;;
5819;SDS011;2936;47.348;9.640;2023-03-16T01:58:58;3.38;;;3.08;;
5819;SDS011;2936;47.348;9.640;2023-03-16T02:01:27;3.40;;;3.22;;
5819;SDS011;2936;47.348;9.640;2023-03-16T02:03:56;5.25;;;3.30;;
5819;SDS011;2936;47.348;9.640;2023-03-16T02:06:25;3.53;;;3.22;;
5819;SDS011;2936;47.348;9.640;2023-03-16T02:08:54;4.15;;;3.75;;
5819;SDS011;2936;47.348;9.640;2023-03-16T02:11:22;6.55;;;4.10;;
5819;SDS011;2936;47.348;9.640;2023-03-16T02:13:50;6.80;;;4.43;;
5819;SDS011;2936;47.348;9.640;2023-03-16T02:16:18;5.70;;;4.85;;
5819;SDS011;2936;47.348;9.640;2023-03-16T02:18:46;6.80;;;4.93;;
5819;SDS011;2936;47.348;9.640;2023-03-16T02:21:16;13.40;;;4.53;;
5819;SDS011;2936;47.348;9.640;2023-03-16T02:23:45;4.90;;;4.05;;
5819;SDS011;2936;47.348;9.640;2023-03-16T02:26:18;5.50;;;5.00;;
5819;SDS011;2936;47.348;9.640;2023-03-16T02:28:49;7.45;;;3.97;;
5819;SDS011;2936;47.348;9.640;2023-03-16T02:31:22;8.48;;;3.65;;
5819;SDS011;2936;47.348;9.640;2023-03-16T02:33:49;3.13;;;2.80;;
5819;SDS011;2936;47.348;9.640;2023-03-16T02:36:18;3.53;;;2.70;;
5819;SDS011;2936;47.348;9.640;2023-03-16T02:38:45;3.17;;;2.97;;
5819;SDS011;2936;47.348;9.640;2023-03-16T02:41:13;3.17;;;3.05;;
5819;SDS011;2936;47.348;9.640;2023-03-16T02:43:42;17.88;;;3.58;;
5819;SDS011;2936;47.348;9.640;2023-03-16T02:46:14;3.72;;;3.47;;
5819;SDS011;2936;47.348;9.640;2023-03-16T02:48:44;3.47;;;3.28;;
5819;SDS011;2936;47.348;9.640;2023-03-16T02:51:13;3.92;;;3.20;;
5819;SDS011;2936;47.348;9.640;2023-03-16T02:53:41;3.45;;;3.25;;
5819;SDS011;2936;47.348;9.640;2023-03-16T02:56:08;3.05;;;2.85;;
5819;SDS011;2936;47.348;9.640;2023-03-16T02:58:35;3.63;;;3.17;;
5819;SDS011;2936;47.348;9.640;2023-03-16T03:01:03;3.58;;;3.38;;
5819;SDS011;2936;47.348;9.640;2023-03-16T03:03:30;4.53;;;3.65;;
5819;SDS011;2936;47.348;9.640;2023-03-16T03:06:00;4.05;;;3.85;;
5819;SDS011;2936;47.348;9.640;2023-03-16T03:08:27;6.38;;;3.72;;
5819;SDS011;2936;47.348;9.640;2023-03-16T03:10:56;4.07;;;3.70;;
5819;SDS011;2936;47.348;9.640;2023-03-16T03:13:24;4.10;;;3.80;;
5819;SDS011;2936;47.348;9.640;2023-03-16T03:15:51;4.50;;;3.15;;
5819;SDS011;2936;47.348;9.640;2023-03-16T03:18:18;5.07;;;3.00;;
5819;SDS011;2936;47.348;9.640;2023-03-16T03:20:46;3.75;;;3.45;;
5819;SDS011;2936;47.348;9.640;2023-03-16T03:23:14;2.58;;;2.47;;
5819;SDS011;2936;47.348;9.640;2023-03-16T03:25:42;3.50;;;2.50;;
5819;SDS011;2936;47.348;9.640;2023-03-16T03:28:09;2.80;;;2.70;;
5819;SDS011;2936;47.348;9.640;2023-03-16T03:30:36;8.48;;;2.53;;
5819;SDS011;2936;47.348;9.640;2023-03-16T03:33:04;3.78;;;3.00;;
5819;SDS011;2936;47.348;9.640;2023-03-16T03:35:31;3.15;;;2.80;;
5819;SDS011;2936;47.348;9.640;2023-03-16T03:37:58;4.18;;;2.55;;
5819;SDS011;2936;47.348;9.640;2023-03-16T03:40:27;3.78;;;2.50;;
5819;SDS011;2936;47.348;9.640;2023-03-16T03:42:54;2.60;;;2.40;;
5819;SDS011;2936;47.348;9.640;2023-03-16T03:45:22;3.00;;;2.65;;
5819;SDS011;2936;47.348;9.640;2023-03-16T03:47:49;2.50;;;2.40;;
5819;SDS011;2936;47.348;9.640;2023-03-16T03:50:16;4.28;;;2.83;;
5819;SDS011;2936;47.348;9.640;2023-03-16T03:52:44;2.30;;;2.20;;
5819;SDS011;2936;47.348;9.640;2023-03-16T03:55:11;2.60;;;2.40;;
5819;SDS011;2936;47.348;9.640;2023-03-16T03:57:40;1.70;;;1.70;;
5819;SDS011;2936;47.348;9.640;2023-03-16T04:00:07;2.17;;;2.08;;
5819;SDS011;2936;47.348;9.640;2023-03-16T04:02:35;2.05;;;1.95;;
5819;SDS011;2936;47.348;9.640;2023-03-16T04:05:03;1.85;;;1.75;;
5819;SDS011;2936;47.348;9.640;2023-03-16T04:07:30;3.10;;;2.03;;
5819;SDS011;2936;47.348;9.640;2023-03-16T04:09:58;1.80;;;1.70;;
5819;SDS011;2936;47.348;9.640;2023-03-16T04:12:26;1.80;;;1.70;;
5819;SDS011;2936;47.348;9.640;2023-03-16T04:14:54;1.98;;;1.80;;
5819;SDS011;2936;47.348;9.640;2023-03-16T04:17:22;1.80;;;1.70;;
5819;SDS011;2936;47.348;9.640;2023-03-16T04:19:49;1.75;;;1.70;;
5819;SDS011;2936;47.348;9.640;2023-03-16T04:22:16;1.88;;;1.77;;
5819;SDS011;2936;47.348;9.640;2023-03-16T04:24:44;1.70;;;1.60;;
5819;SDS011;2936;47.348;9.640;2023-03-16T04:27:11;1.90;;;1.80;;
5819;SDS011;2936;47.348;9.640;2023-03-16T04:29:38;2.28;;;1.98;;
5819;SDS011;2936;47.348;9.640;2023-03-16T04:32:08;1.90;;;1.80;;
5819;SDS011;2936;47.348;9.640;2023-03-16T04:34:35;2.72;;;1.92;;
5819;SDS011;2936;47.348;9.640;2023-03-16T04:37:05;2.00;;;1.90;;
5819;SDS011;2936;47.348;9.640;2023-03-16T04:39:33;1.80;;;1.70;;
5819;SDS011;2936;47.348;9.640;2023-03-16T04:42:00;4.43;;;2.05;;
5819;SDS011;2936;47.348;9.640;2023-03-16T04:44:27;1.98;;;1.88;;
5819;SDS011;2936;47.348;9.640;2023-03-16T04:46:55;5.95;;;1.60;;
5819;SDS011;2936;47.348;9.640;2023-03-16T04:49:24;2.17;;;1.88;;
5819;SDS011;2936;47.348;9.640;2023-03-16T04:51:52;2.17;;;1.98;;
5819;SDS011;2936;47.348;9.640;2023-03-16T04:54:19;2.10;;;2.00;;
5819;SDS011;2936;47.348;9.640;2023-03-16T04:56:46;2.67;;;2.47;;
5819;SDS011;2936;47.348;9.640;2023-03-16T04:59:14;2.50;;;2.40;;
5819;SDS011;2936;47.348;9.640;2023-03-16T05:01:41;2.50;;;2.40;;
5819;SDS011;2936;47.348;9.640;2023-03-16T05:04:09;7.53;;;2.60;;
5819;SDS011;2936;47.348;9.640;2023-03-16T05:06:37;7.90;;;2.75;;
5819;SDS011;2936;47.348;9.640;2023-03-16T05:09:05;3.10;;;2.40;;
5819;SDS011;2936;47.348;9.640;2023-03-16T05:11:33;2.50;;;2.40;;
5819;SDS011;2936;47.348;9.640;2023-03-16T05:14:01;6.35;;;2.70;;
5819;SDS011;2936;47.348;9.640;2023-03-16T05:16:29;3.47;;;3.28;;
5819;SDS011;2936;47.348;9.640;2023-03-16T05:18:56;5.00;;;2.40;;
5819;SDS011;2936;47.348;9.640;2023-03-16T05:21:24;4.97;;;2.40;;
5819;SDS011;2936;47.348;9.640;2023-03-16T05:23:52;5.15;;;3.00;;
5819;SDS011;2936;47.348;9.640;2023-03-16T05:26:20;4.68;;;2.85;;
5819;SDS011;2936;47.348;9.640;2023-03-16T05:28:49;2.22;;;2.13;;
5819;SDS011;2936;47.348;9.640;2023-03-16T05:31:17;3.35;;;3.05;;
5819;SDS011;2936;47.348;9.640;2023-03-16T05:33:44;4.32;;;2.40;;
5819;SDS011;2936;47.348;9.640;2023-03-16T05:36:12;2.70;;;2.50;;
5819;SDS011;2936;47.348;9.640;2023-03-16T05:38:39;2.28;;;2.17;;
5819;SDS011;2936;47.348;9.640;2023-03-16T05:41:09;2.28;;;2.08;;
5819;SDS011;2936;47.348;9.640;2023-03-16T05:43:36;5.40;;;3.83;;
5819;SDS011;2936;47.348;9.640;2023-03-16T05:46:04;11.77;;;3.67;;
5819;SDS011;2936;47.348;9.640;2023-03-16T05:48:31;3.53;;;3.22;;
5819;SDS011;2936;47.348;9.640;2023-03-16T05:50:59;2.55;;;2.45;;
5819;SDS011;2936;47.348;9.640;2023-03-16T05:53:30;6.97;;;3.00;;
5819;SDS011;2936;47.348;9.640;2023-03-16T05:55:57;3.70;;;3.35;;
5819;SDS011;2936;47.348;9.640;2023-03-16T05:58:26;3.75;;;3.33;;
5819;SDS011;2936;47.348;9.640;2023-03-16T06:00:54;9.52;;;3.90;;
5819;SDS011;2936;47.348;9.640;2023-03-16T06:03:21;3.40;;;3.20;;
5819;SDS011;2936;47.348;9.640;2023-03-16T06:05:48;3.40;;;3.15;;
5819;SDS011;2936;47.348;9.640;2023-03-16T06:08:16;11.05;;;3.03;;
5819;SDS011;2936;47.348;9.640;2023-03-16T06:10:45;13.30;;;3.67;;
5819;SDS011;2936;47.348;9.640;2023-03-16T06:13:12;4.68;;;2.67;;
5819;SDS011;2936;47.348;9.640;2023-03-16T06:15:41;5.68;;;3.63;;
5819;SDS011;2936;47.348;9.640;2023-03-16T06:18:09;19.98;;;4.22;;
5819;SDS011;2936;47.348;9.640;2023-03-16T06:20:36;9.00;;;3.67;;
5819;SDS011;2936;47.348;9.640;2023-03-16T06:23:03;8.85;;;4.40;;
5819;SDS011;2936;47.348;9.640;2023-03-16T06:25:31;4.55;;;3.28;;
5819;SDS011;2936;47.348;9.640;2023-03-16T06:27:58;3.00;;;2.80;;
5819;SDS011;2936;47.348;9.640;2023-03-16T06:30:26;8.13;;;2.80;;
5819;SDS011;2936;47.348;9.640;2023-03-16T06:32:55;4.40;;;2.80;;
5819;SDS011;2936;47.348;9.640;2023-03-16T06:35:24;15.90;;;3.45;;
5819;SDS011;2936;47.348;9.640;2023-03-16T06:37:51;8.40;;;4.15;;
5819;SDS011;2936;47.348;9.640;2023-03-16T06:40:18;4.30;;;3.80;;
5819;SDS011;2936;47.348;9.640;2023-03-16T06:42:46;4.93;;;3.67;;
5819;SDS011;2936;47.348;9.640;2023-03-16T06:45:13;16.88;;;5.75;;
5819;SDS011;2936;47.348;9.640;2023-03-16T06:47:41;28.63;;;5.20;;
5819;SDS011;2936;47.348;9.640;2023-03-16T06:50:10;13.90;;;4.50;;
5819;SDS011;2936;47.348;9.640;2023-03-16T06:52:38;17.52;;;4.10;;
5819;SDS011;2936;47.348;9.640;2023-03-16T06:55:06;35.95;;;4.53;;
5819;SDS011;2936;47.348;9.640;2023-03-16T06:57:33;19.98;;;4.40;;
5819;SDS011;2936;47.348;9.640;2023-03-16T07:00:00;28.05;;;4.80;;
5819;SDS011;2936;47.348;9.640;2023-03-16T07:02:28;7.32;;;3.97;;
5819;SDS011;2936;47.348;9.640;2023-03-16T07:04:56;7.60;;;3.67;;
5819;SDS011;2936;47.348;9.640;2023-03-16T07:07:25;12.25;;;3.80;;
5819;SDS011;2936;47.348;9.640;2023-03-16T07:09:52;9.15;;;3.28;;
5819;SDS011;2936;47.348;9.640;2023-03-16T07:12:19;7.72;;;2.97;;
5819;SDS011;2936;47.348;9.640;2023-03-16T07:14:47;2.65;;;2.45;;
5819;SDS011;2936;47.348;9.640;2023-03-16T07:17:15;2.00;;;1.90;;
5819;SDS011;2936;47.348;9.640;2023-03-16T07:19:42;2.50;;;2.30;;
5819;SDS011;2936;47.348;9.640;2023-03-16T07:22:10;7.32;;;3.45;;
5819;SDS011;2936;47.348;9.640;2023-03-16T07:24:38;19.42;;;6.78;;
5819;SDS011;2936;47.348;9.640;2023-03-16T07:27:08;18.42;;;5.40;;
5819;SDS011;2936;47.348;9.640;2023-03-16T07:29:35;11.07;;;4.88;;
5819;SDS011;2936;47.348;9.640;2023-03-16T07:32:03;10.68;;;5.63;;
5819;SDS011;2936;47.348;9.640;2023-03-16T07:34:30;3.05;;;2.58;;
5819;SDS011;2936;47.348;9.640;2023-03-16T07:36:57;13.57;;;2.65;;
5819;SDS011;2936;47.348;9.640;2023-03-16T07:39:25;2.10;;;1.95;;
5819;SDS011;2936;47.348;9.640;2023-03-16T07:41:54;2.10;;;2.00;;
5819;SDS011;2936;47.348;9.640;2023-03-16T07:44:21;2.20;;;2.10;;
5819;SDS011;2936;47.348;9.640;2023-03-16T07:46:48;3.75;;;2.15;;
5819;SDS011;2936;47.348;9.640;2023-03-16T07:49:16;5.75;;;2.35;;
5819;SDS011;2936;47.348;9.640;2023-03-16T07:51:43;6.80;;;2.05;;
5819;SDS011;2936;47.348;9.640;2023-03-16T07:54:10;12.85;;;2.50;;
5819;SDS011;2936;47.348;9.640;2023-03-16T07:56:38;3.60;;;2.10;;
5819;SDS011;2936;47.348;9.640;2023-03-16T07:59:07;2.30;;;2.15;;
5819;SDS011;2936;47.348;9.640;2023-03-16T08:01:34;8.90;;;2.28;;
5819;SDS011;2936;47.348;9.640;2023-03-16T08:04:02;2.33;;;2.10;;
5819;SDS011;2936;47.348;9.640;2023-03-16T08:06:29;2.40;;;2.25;;
5819;SDS011;2936;47.348;9.640;2023-03-16T08:08:56;17.95;;;2.45;;
5819;SDS011;2936;47.348;9.640;2023-03-16T08:11:24;3.10;;;2.00;;
5819;SDS011;2936;47.348;9.640;2023-03-16T08:13:52;3.35;;;2.15;;
5819;SDS011;2936;47.348;9.640;2023-03-16T08:16:22;11.15;;;2.50;;
5819;SDS011;2936;47.348;9.640;2023-03-16T08:18:49;1.80;;;1.70;;
5819;SDS011;2936;47.348;9.640;2023-03-16T08:21:17;2.13;;;2.03;;
5819;SDS011;2936;47.348;9.640;2023-03-16T08:23:45;6.07;;;2.65;;
5819;SDS011;2936;47.348;9.640;2023-03-16T08:26:14;4.30;;;2.72;;
5819;SDS011;2936;47.348;9.640;2023-03-16T08:28:42;2.38;;;2.17;;
5819;SDS011;2936;47.348;9.640;2023-03-16T08:31:11;5.65;;;2.58;;
5819;SDS011;2936;47.348;9.640;2023-03-16T08:33:40;2.30;;;2.20;;
5819;SDS011;2936;47.348;9.640;2023-03-16T08:36:09;2.50;;;2.30;;
5819;SDS011;2936;47.348;9.640;2023-03-16T08:38:37;4.50;;;3.20;;
5819;SDS011;2936;47.348;9.640;2023-03-16T08:41:05;6.07;;;2.60;;
5819;SDS011;2936;47.348;9.640;2023-03-16T08:43:33;3.00;;;2.80;;
5819;SDS011;2936;47.348;9.640;2023-03-16T08:46:01;2.35;;;2.25;;
5819;SDS011;2936;47.348;9.640;2023-03-16T08:48:29;3.00;;;2.90;;
5819;SDS011;2936;47.348;9.640;2023-03-16T08:51:01;17.40;;;2.65;;
5819;SDS011;2936;47.348;9.640;2023-03-16T08:53:30;2.33;;;2.22;;
5819;SDS011;2936;47.348;9.640;2023-03-16T08:56:00;4.18;;;2.20;;
5819;SDS011;2936;47.348;9.640;2023-03-16T08:58:29;3.33;;;2.10;;
5819;SDS011;2936;47.348;9.640;2023-03-16T09:00:58;2.60;;;2.40;;
5819;SDS011;2936;47.348;9.640;2023-03-16T09:03:25;1.85;;;1.75;;
5819;SDS011;2936;47.348;9.640;2023-03-16T09:05:53;2.20;;;2.10;;
5819;SDS011;2936;47.348;9.640;2023-03-16T09:08:23;3.60;;;2.30;;
5819;SDS011;2936;47.348;9.640;2023-03-16T09:10:57;4.22;;;2.03;;
5819;SDS011;2936;47.348;9.640;2023-03-16T09:13:24;5.38;;;2.20;;
5819;SDS011;2936;47.348;9.640;2023-03-16T09:15:51;3.90;;;2.40;;
5819;SDS011;2936;47.348;9.640;2023-03-16T09:18:19;6.55;;;2.83;;
5819;SDS011;2936;47.348;9.640;2023-03-16T09:20:47;7.18;;;3.10;;
5819;SDS011;2936;47.348;9.640;2023-03-16T09:23:15;3.08;;;2.30;;
5819;SDS011;2936;47.348;9.640;2023-03-16T09:25:46;3.88;;;2.75;;
5819;SDS011;2936;47.348;9.640;2023-03-16T09:28:15;2.85;;;2.50;;
5819;SDS011;2936;47.348;9.640;2023-03-16T09:30:42;2.72;;;2.53;;
5819;SDS011;2936;47.348;9.640;2023-03-16T09:33:10;2.92;;;2.30;;
5819;SDS011;2936;47.348;9.640;2023-03-16T09:35:37;2.40;;;2.30;;
5819;SDS011;2936;47.348;9.640;2023-03-16T09:38:04;2.60;;;2.50;;
5819;SDS011;2936;47.348;9.640;2023-03-16T09:40:32;3.20;;;2.13;;
5819;SDS011;2936;47.348;9.640;2023-03-16T09:43:06;2.70;;;2.50;;
5819;SDS011;2936;47.348;9.640;2023-03-16T09:45:39;17.13;;;3.10;;
5819;SDS011;2936;47.348;9.640;2023-03-16T09:48:09;2.97;;;2.30;;
5819;SDS011;2936;47.348;9.640;2023-03-16T09:50:38;2.83;;;2.38;;
5819;SDS011;2936;47.348;9.640;2023-03-16T09:53:07;12.05;;;3.13;;
5819;SDS011;2936;47.348;9.640;2023-03-16T09:55:38;4.28;;;2.67;;
5819;SDS011;2936;47.348;9.640;2023-03-16T09:58:09;2.80;;;2.60;;
5819;SDS011;2936;47.348;9.640;2023-03-16T10:00:40;3.10;;;2.42;;
5819;SDS011;2936;47.348;9.640;2023-03-16T10:03:14;1.90;;;1.80;;
5819;SDS011;2936;47.348;9.640;2023-03-16T10:05:45;2.85;;;2.30;;
5819;SDS011;2936;47.348;9.640;2023-03-16T10:08:14;2.13;;;2.03;;
5819;SDS011;2936;47.348;9.640;2023-03-16T10:13:29;2.90;;;2.10;;
5819;SDS011;2936;47.348;9.640;2023-03-16T10:15:57;4.18;;;2.05;;
5819;SDS011;2936;47.348;9.640;2023-03-16T10:18:28;2.20;;;2.10;;
5819;SDS011;2936;47.348;9.640;2023-03-16T10:20:57;5.72;;;1.90;;
5819;SDS011;2936;47.348;9.640;2023-03-16T10:23:33;6.82;;;2.20;;
5819;SDS011;2936;47.348;9.640;2023-03-16T10:26:00;5.32;;;2.38;;
5819;SDS011;2936;47.348;9.640;2023-03-16T10:28:34;6.78;;;2.30;;
5819;SDS011;2936;47.348;9.640;2023-03-16T10:31:01;5.75;;;2.20;;
5819;SDS011;2936;47.348;9.640;2023-03-16T10:33:29;3.90;;;2.25;;
5819;SDS011;2936;47.348;9.640;2023-03-16T10:35:58;9.52;;;2.80;;
5819;SDS011;2936;47.348;9.640;2023-03-16T10:38:29;6.93;;;2.58;;
5819;SDS011;2936;47.348;9.640;2023-03-16T10:40:57;4.32;;;2.42;;
5819;SDS011;2936;47.348;9.640;2023-03-16T10:43:24;2.00;;;1.90;;
5819;SDS011;2936;47.348;9.640;2023-03-16T10:45:58;2.97;;;2.10;;
5819;SDS011;2936;47.348;9.640;2023-03-16T10:48:29;5.10;;;2.20;;
5819;SDS011;2936;47.348;9.640;2023-03-16T10:50:58;2.22;;;2.13;;
5819;SDS011;2936;47.348;9.640;2023-03-16T10:53:27;29.00;;;3.83;;
5819;SDS011;2936;47.348;9.640;2023-03-16T10:55:56;2.17;;;2.08;;
5819;SDS011;2936;47.348;9.640;2023-03-16T10:58:24;5.22;;;1.90;;
5819;SDS011;2936;47.348;9.640;2023-03-16T11:00:52;2.30;;;2.10;;
5819;SDS011;2936;47.348;9.640;2023-03-16T11:03:23;2.25;;;2.15;;
5819;SDS011;2936;47.348;9.640;2023-03-16T11:05:55;2.30;;;1.90;;
5819;SDS011;2936;47.348;9.640;2023-03-16T11:08:23;4.30;;;2.00;;
5819;SDS011;2936;47.348;9.640;2023-03-16T11:10:55;2.22;;;2.00;;
5819;SDS011;2936;47.348;9.640;2023-03-16T11:13:24;2.25;;;2.15;;
5819;SDS011;2936;47.348;9.640;2023-03-16T11:15:53;2.40;;;2.30;;
5819;SDS011;2936;47.348;9.640;2023-03-16T11:18:27;2.40;;;2.30;;
5819;SDS011;2936;47.348;9.640;2023-03-16T11:20:55;3.10;;;2.10;;
5819;SDS011;2936;47.348;9.640;2023-03-16T11:23:27;4.22;;;2.10;;
5819;SDS011;2936;47.348;9.640;2023-03-16T11:25:55;2.30;;;2.10;;
5819;SDS011;2936;47.348;9.640;2023-03-16T11:28:28;2.00;;;1.90;;
5819;SDS011;2936;47.348;9.640;2023-03-16T11:31:00;1.90;;;1.90;;
5819;SDS011;2936;47.348;9.640;2023-03-16T11:33:32;2.10;;;2.00;;
5819;SDS011;2936;47.348;9.640;2023-03-16T11:36:01;4.93;;;2.17;;
5819;SDS011;2936;47.348;9.640;2023-03-16T11:38:32;2.20;;;2.00;;
5819;SDS011;2936;47.348;9.640;2023-03-16T11:41:00;2.22;;;2.00;;
5819;SDS011;2936;47.348;9.640;2023-03-16T11:46:13;2.30;;;2.20;;
5819;SDS011;2936;47.348;9.640;2023-03-16T11:48:43;2.28;;;2.00;;
5819;SDS011;2936;47.348;9.640;2023-03-16T11:51:14;2.95;;;2.20;;
5819;SDS011;2936;47.348;9.640;2023-03-16T11:53:48;8.90;;;2.80;;
5819;SDS011;2936;47.348;9.640;2023-03-16T11:56:24;2.00;;;1.90;;
5819;SDS011;2936;47.348;9.640;2023-03-16T11:58:56;4.50;;;2.42;;
5819;SDS011;2936;47.348;9.640;2023-03-16T12:01:29;2.25;;;2.15;;
5819;SDS011;2936;47.348;9.640;2023-03-16T12:04:09;2.92;;;2.47;;
5819;SDS011;2936;47.348;9.640;2023-03-16T12:06:43;3.55;;;2.20;;
5819;SDS011;2936;47.348;9.640;2023-03-16T12:09:29;2.75;;;2.65;;
5819;SDS011;2936;47.348;9.640;2023-03-16T12:12:06;2.78;;;2.30;;
5819;SDS011;2936;47.348;9.640;2023-03-16T12:14:35;2.20;;;2.10;;
5819;SDS011;2936;47.348;9.640;2023-03-16T12:17:06;2.30;;;2.20;;
5819;SDS011;2936;47.348;9.640;2023-03-16T12:19:38;6.32;;;3.75;;
5819;SDS011;2936;47.348;9.640;2023-03-16T12:22:11;3.88;;;2.55;;
5819;SDS011;2936;47.348;9.640;2023-03-16T12:24:41;2.30;;;2.20;;
5819;SDS011;2936;47.348;9.640;2023-03-16T12:27:12;19.65;;;3.47;;
5819;SDS011;2936;47.348;9.640;2023-03-16T12:29:43;2.50;;;2.30;;
5819;SDS011;2936;47.348;9.640;2023-03-16T12:32:17;2.60;;;2.50;;
5819;SDS011;2936;47.348;9.640;2023-03-16T12:34:51;9.13;;;2.20;;
5819;SDS011;2936;47.348;9.640;2023-03-16T12:37:26;3.53;;;2.20;;
5819;SDS011;2936;47.348;9.640;2023-03-16T12:40:04;2.55;;;2.38;;
5819;SDS011;2936;47.348;9.640;2023-03-16T12:42:41;4.50;;;2.40;;
5819;SDS011;2936;47.348;9.640;2023-03-16T12:45:14;3.47;;;2.50;;
5819;SDS011;2936;47.348;9.640;2023-03-16T12:47:45;2.40;;;2.20;;
5819;SDS011;2936;47.348;9.640;2023-03-16T12:50:17;2.25;;;2.15;;
5819;SDS011;2936;47.348;9.640;2023-03-16T12:52:46;3.20;;;2.58;;
5819;SDS011;2936;47.348;9.640;2023-03-16T12:55:15;9.48;;;2.67;;
5819;SDS011;2936;47.348;9.640;2023-03-16T12:57:43;9.65;;;2.38;;
5819;SDS011;2936;47.348;9.640;2023-03-16T13:00:12;2.35;;;2.15;;
5819;SDS011;2936;47.348;9.640;2023-03-16T13:02:41;4.65;;;2.50;;
5819;SDS011;2936;47.348;9.640;2023-03-16T13:05:10;3.33;;;2.10;;
5819;SDS011;2936;47.348;9.640;2023-03-16T13:07:46;3.50;;;2.35;;
5819;SDS011;2936;47.348;9.640;2023-03-16T13:10:14;2.10;;;2.00;;
5819;SDS011;2936;47.348;9.640;2023-03-16T13:12:42;2.03;;;1.92;;
5819;SDS011;2936;47.348;9.640;2023-03-16T13:15:26;2.40;;;2.20;;
5819;SDS011;2936;47.348;9.640;2023-03-16T13:18:04;12.15;;;3.65;;
5819;SDS011;2936;47.348;9.640;2023-03-16T13:20:32;7.22;;;2.90;;
5819;SDS011;2936;47.348;9.640;2023-03-16T13:23:19;2.47;;;2.20;;
5819;SDS011;2936;47.348;9.640;2023-03-16T13:25:57;6.00;;;2.50;;
5819;SDS011;2936;47.348;9.640;2023-03-16T13:28:26;18.63;;;3.83;;
5819;SDS011;2936;47.348;9.640;2023-03-16T13:30:55;2.30;;;2.20;;
5819;SDS011;2936;47.348;9.640;2023-03-16T13:33:23;2.30;;;2.20;;
5819;SDS011;2936;47.348;9.640;2023-03-16T13:35:51;3.40;;;2.67;;
5819;SDS011;2936;47.348;9.640;2023-03-16T13:38:22;3.03;;;2.50;;
5819;SDS011;2936;47.348;9.640;2023-03-16T13:40:53;2.35;;;2.25;;
5819;SDS011;2936;47.348;9.640;2023-03-16T13:43:25;7.95;;;2.67;;
5819;SDS011;2936;47.348;9.640;2023-03-16T13:45:53;2.40;;;2.30;;
5819;SDS011;2936;47.348;9.640;2023-03-16T13:48:21;3.50;;;2.75;;
5819;SDS011;2936;47.348;9.640;2023-03-16T13:50:50;8.27;;;2.83;;
5819;SDS011;2936;47.348;9.640;2023-03-16T13:53:18;2.40;;;2.20;;
5819;SDS011;2936;47.348;9.640;2023-03-16T13:55:49;14.00;;;3.05;;
5819;SDS011;2936;47.348;9.640;2023-03-16T13:58:19;2.70;;;2.55;;
5819;SDS011;2936;47.348;9.640;2023-03-16T14:00:47;3.80;;;3.50;;
5819;SDS011;2936;47.348;9.640;2023-03-16T14:03:16;10.52;;;2.88;;
5819;SDS011;2936;47.348;9.640;2023-03-16T14:05:44;3.15;;;2.95;;
5819;SDS011;2936;47.348;9.640;2023-03-16T14:08:16;41.90;;;5.10;;
5819;SDS011;2936;47.348;9.640;2023-03-16T14:10:44;12.85;;;4.68;;
5819;SDS011;2936;47.348;9.640;2023-03-16T14:13:23;2.83;;;2.35;;
5819;SDS011;2936;47.348;9.640;2023-03-16T14:15:51;5.40;;;3.35;;
5819;SDS011;2936;47.348;9.640;2023-03-16T14:18:21;2.75;;;2.50;;
5819;SDS011;2936;47.348;9.640;2023-03-16T14:20:49;4.35;;;2.70;;
5819;SDS011;2936;47.348;9.640;2023-03-16T14:23:18;4.15;;;2.70;;
5819;SDS011;2936;47.348;9.640;2023-03-16T14:25:47;3.00;;;2.80;;
5819;SDS011;2936;47.348;9.640;2023-03-16T14:28:16;3.30;;;2.72;;
5819;SDS011;2936;47.348;9.640;2023-03-16T14:30:50;4.15;;;2.75;;
5819;SDS011;2936;47.348;9.640;2023-03-16T14:33:23;2.80;;;2.70;;
5819;SDS011;2936;47.348;9.640;2023-03-16T14:35:53;13.60;;;3.33;;
5819;SDS011;2936;47.348;9.640;2023-03-16T14:38:21;4.53;;;2.97;;
5819;SDS011;2936;47.348;9.640;2023-03-16T14:40:52;3.30;;;3.10;;
5819;SDS011;2936;47.348;9.640;2023-03-16T14:43:20;3.35;;;2.50;;
5819;SDS011;2936;47.348;9.640;2023-03-16T14:45:51;9.98;;;3.25;;
5819;SDS011;2936;47.348;9.640;2023-03-16T14:48:20;3.40;;;3.13;;
5819;SDS011;2936;47.348;9.640;2023-03-16T14:50:48;3.10;;;2.90;;
5819;SDS011;2936;47.348;9.640;2023-03-16T14:53:18;3.00;;;2.80;;
5819;SDS011;2936;47.348;9.640;2023-03-16T14:55:45;3.42;;;3.13;;
5819;SDS011;2936;47.348;9.640;2023-03-16T14:58:13;11.02;;;4.10;;
5819;SDS011;2936;47.348;9.640;2023-03-16T15:00:41;3.38;;;3.17;;
5819;SDS011;2936;47.348;9.640;2023-03-16T15:03:11;4.10;;;3.10;;
5819;SDS011;2936;47.348;9.640;2023-03-16T15:05:39;5.93;;;2.72;;
5819;SDS011;2936;47.348;9.640;2023-03-16T15:08:10;10.13;;;3.97;;
5819;SDS011;2936;47.348;9.640;2023-03-16T15:10:41;3.58;;;3.38;;
5819;SDS011;2936;47.348;9.640;2023-03-16T15:13:10;6.57;;;3.47;;
5819;SDS011;2936;47.348;9.640;2023-03-16T15:15:48;3.05;;;2.95;;
5819;SDS011;2936;47.348;9.640;2023-03-16T15:18:17;8.25;;;3.20;;
5819;SDS011;2936;47.348;9.640;2023-03-16T15:20:45;3.25;;;3.05;;
5819;SDS011;2936;47.348;9.640;2023-03-16T15:23:14;3.67;;;3.20;;
5819;SDS011;2936;47.348;9.640;2023-03-16T15:25:43;5.30;;;3.65;;
5819;SDS011;2936;47.348;9.640;2023-03-16T15:28:11;3.65;;;3.30;;
5819;SDS011;2936;47.348;9.640;2023-03-16T15:30:41;3.85;;;3.45;;
5819;SDS011;2936;47.348;9.640;2023-03-16T15:33:09;4.15;;;3.95;;